Newaygo, MI (49337)

4:58 AM EDT on August 31, 2015 (GMT -0400)
(MAC), Newaygo | | Change Station
CLOSE
Current Station
Personal Weather Station
Location: Newaygo, MI
Elevation: 640 ft
Nearby Weather Stations
Active Advisory: Dense Fog Advisory

Elev 640 ft 43.42 °N, 85.81 °W | Updated 2 minutes ago

Fog
Fog
63.3 °F
Feels Like 63.3 °F
N
0.0
Wind Variable Wind from North
Gusts 0.0 mph

Today
High -- | Low -- °F
--% Chance of Precip.
Yesterday
High -- | Low -- °F
Precip. -- in
7:05 AM 8:20 PM
Waning Gibbous, 96% visible
Pressure 30.03 in
Visibility 0.2 miles
Clouds Overcast 200 ft
Dew Point 63 °F
Humidity 98%
Rainfall in
Snow Depth Not available.
UV 0 out of 12
Pollen 9.80 out of 12
Air Quality Not available.
Flu Activity Not available.
METAR KFFX 310813Z AUTO 00000KT M1/4SM FG OVC002 16/16 A3003 RMK AO2 T01550155
Pressure 30.03 in
Visibility 0.2 miles
Clouds Overcast 200 ft
Dew Point 63 °F
Humidity 98%
Rainfall in
Snow Depth Not available.
UV 0 out of 12
Pollen 9.80 out of 12
Air Quality Not available.
Flu Activity Not available.
METAR KFFX 310813Z AUTO 00000KT M1/4SM FG OVC002 16/16 A3003 RMK AO2 T01550155

10-Day Weather Forecast

×

Almanac

Astronomy

Aug. 31, 2015 Rise Set
Actual Time
Civil Twilight
Nautical Twilight
Astronomical Twilight
Moon
Length of Visible Light
Length of Day
Tomorrow will be .
, % of the Moon is Illuminated

Today's Extremes

State Highs State Lows

Community

WunderPhotos

Upload Photos

1,851,220 photos uploaded!

WunderBlogs® & News

Nearby

Air Quality

  Air Quality AQ Index Pollutant
Not available.

Snow Depth

Station Depth Elevation

Earthquake Activity

City Distance Mag. Time & Date
Minimum magnitude displayed is 2.5.

Coastal Water Temperatures

Place Temperature

Stations

Nearby Weather Stations

Station Location Temp. Windchill Dew Point Humidity Wind Precip. Elev Updated Type
                   
Dense Fog Advisory
Statement as of 3:30 AM EDT on August 31, 2015

... Dense fog advisory remains in effect until 10 am EDT this
morning...

Hazardous weather...

* widespread dense fog with visibilities less than a quarter
   mile.

Impacts...

* travel will be difficult in dense fog.

Precautionary/preparedness actions...

* if driving... slow down... use low beam headlights... and leave
   plenty of distance ahead of you.

* Weather preparedness information is available on line at
   http://go.USA.Gov/5og.



Ostuno